sensor_id;sensor_type;location;lat;lon;timestamp;pressure;altitude;pressure_sealevel;temperature;humidity
60642;BME280;46837;52.446;-1.930;2023-10-31T00:00:09;98358.15;;;10.56;84.87
60642;BME280;46837;52.446;-1.930;2023-10-31T00:01:09;98357.91;;;10.59;84.96
60642;BME280;46837;52.446;-1.930;2023-10-31T00:02:09;98355.72;;;10.60;84.89
60642;BME280;46837;52.446;-1.930;2023-10-31T00:03:09;98356.52;;;10.62;84.85
60642;BME280;46837;52.446;-1.930;2023-10-31T00:04:09;98354.68;;;10.59;84.80
60642;BME280;46837;52.446;-1.930;2023-10-31T00:05:09;98359.74;;;10.57;84.99
60642;BME280;46837;52.446;-1.930;2023-10-31T00:06:09;98354.13;;;10.59;85.21
60642;BME280;46837;52.446;-1.930;2023-10-31T00:07:09;98355.93;;;10.61;85.10
60642;BME280;46837;52.446;-1.930;2023-10-31T00:08:09;98352.91;;;10.62;85.00
60642;BME280;46837;52.446;-1.930;2023-10-31T00:09:09;98357.29;;;10.61;85.08
60642;BME280;46837;52.446;-1.930;2023-10-31T00:10:09;98354.20;;;10.63;85.10
60642;BME280;46837;52.446;-1.930;2023-10-31T00:11:09;98355.90;;;10.52;85.39
60642;BME280;46837;52.446;-1.930;2023-10-31T00:12:09;98352.41;;;10.47;85.83
60642;BME280;46837;52.446;-1.930;2023-10-31T00:13:09;98357.48;;;10.43;86.20
60642;BME280;46837;52.446;-1.930;2023-10-31T00:14:09;98360.47;;;10.46;86.15
60642;BME280;46837;52.446;-1.930;2023-10-31T00:15:09;98359.99;;;10.48;85.98
60642;BME280;46837;52.446;-1.930;2023-10-31T00:16:09;98360.00;;;10.46;86.05
60642;BME280;46837;52.446;-1.930;2023-10-31T00:17:09;98360.34;;;10.51;86.29
60642;BME280;46837;52.446;-1.930;2023-10-31T00:18:09;98356.88;;;10.52;85.95
60642;BME280;46837;52.446;-1.930;2023-10-31T00:19:09;98355.53;;;10.53;85.89
60642;BME280;46837;52.446;-1.930;2023-10-31T00:20:09;98359.01;;;10.54;85.81
60642;BME280;46837;52.446;-1.930;2023-10-31T00:21:09;98357.90;;;10.55;85.83
60642;BME280;46837;52.446;-1.930;2023-10-31T00:22:09;98356.18;;;10.56;85.81
60642;BME280;46837;52.446;-1.930;2023-10-31T00:23:09;98355.59;;;10.53;85.89
60642;BME280;46837;52.446;-1.930;2023-10-31T00:24:09;98359.44;;;10.44;86.27
60642;BME280;46837;52.446;-1.930;2023-10-31T00:25:09;98355.29;;;10.42;86.54
60642;BME280;46837;52.446;-1.930;2023-10-31T00:26:09;98357.53;;;10.44;86.72
60642;BME280;46837;52.446;-1.930;2023-10-31T00:27:09;98358.27;;;10.40;86.59
60642;BME280;46837;52.446;-1.930;2023-10-31T00:28:09;98351.05;;;10.41;86.47
60642;BME280;46837;52.446;-1.930;2023-10-31T00:29:09;98359.39;;;10.39;86.40
60642;BME280;46837;52.446;-1.930;2023-10-31T00:30:09;98355.87;;;10.40;86.40
60642;BME280;46837;52.446;-1.930;2023-10-31T00:31:09;98358.72;;;10.40;86.31
60642;BME280;46837;52.446;-1.930;2023-10-31T00:32:09;98360.71;;;10.37;86.27
60642;BME280;46837;52.446;-1.930;2023-10-31T00:33:09;98359.23;;;10.32;86.47
60642;BME280;46837;52.446;-1.930;2023-10-31T00:34:09;98363.27;;;10.22;86.90
60642;BME280;46837;52.446;-1.930;2023-10-31T00:35:09;98367.80;;;10.26;87.09
60642;BME280;46837;52.446;-1.930;2023-10-31T00:36:09;98364.71;;;10.27;86.76
60642;BME280;46837;52.446;-1.930;2023-10-31T00:37:09;98365.43;;;10.19;87.07
60642;BME280;46837;52.446;-1.930;2023-10-31T00:38:09;98366.30;;;10.19;87.22
60642;BME280;46837;52.446;-1.930;2023-10-31T00:39:09;98366.75;;;10.25;87.30
60642;BME280;46837;52.446;-1.930;2023-10-31T00:40:09;98371.27;;;10.27;86.98
60642;BME280;46837;52.446;-1.930;2023-10-31T00:41:09;98368.22;;;10.29;86.99
60642;BME280;46837;52.446;-1.930;2023-10-31T00:42:09;98368.39;;;10.23;87.02
60642;BME280;46837;52.446;-1.930;2023-10-31T00:43:09;98371.77;;;10.25;87.24
60642;BME280;46837;52.446;-1.930;2023-10-31T00:44:09;98366.82;;;10.26;86.96
60642;BME280;46837;52.446;-1.930;2023-10-31T00:45:09;98372.15;;;10.29;87.06
60642;BME280;46837;52.446;-1.930;2023-10-31T00:46:09;98369.04;;;10.32;86.81
60642;BME280;46837;52.446;-1.930;2023-10-31T00:47:09;98369.76;;;10.37;86.85
60642;BME280;46837;52.446;-1.930;2023-10-31T00:48:09;98370.25;;;10.37;86.73
60642;BME280;46837;52.446;-1.930;2023-10-31T00:49:09;98373.17;;;10.43;86.77
60642;BME280;46837;52.446;-1.930;2023-10-31T00:50:09;98366.44;;;10.43;86.47
60642;BME280;46837;52.446;-1.930;2023-10-31T00:51:09;98369.50;;;10.43;86.76
60642;BME280;46837;52.446;-1.930;2023-10-31T00:52:09;98366.07;;;10.36;86.89
60642;BME280;46837;52.446;-1.930;2023-10-31T00:53:09;98367.63;;;10.33;87.29
60642;BME280;46837;52.446;-1.930;2023-10-31T00:54:09;98368.69;;;10.36;87.51
60642;BME280;46837;52.446;-1.930;2023-10-31T00:55:09;98366.34;;;10.41;87.21
60642;BME280;46837;52.446;-1.930;2023-10-31T00:56:09;98366.39;;;10.41;86.96
60642;BME280;46837;52.446;-1.930;2023-10-31T00:57:09;98366.12;;;10.43;86.76
60642;BME280;46837;52.446;-1.930;2023-10-31T00:58:09;98356.48;;;10.46;86.79
60642;BME280;46837;52.446;-1.930;2023-10-31T00:59:09;98361.51;;;10.48;86.50
60642;BME280;46837;52.446;-1.930;2023-10-31T01:00:09;98360.12;;;10.51;86.38
60642;BME280;46837;52.446;-1.930;2023-10-31T01:01:09;98357.27;;;10.52;86.26
60642;BME280;46837;52.446;-1.930;2023-10-31T01:02:09;98357.93;;;10.54;86.18
60642;BME280;46837;52.446;-1.930;2023-10-31T01:03:09;98355.89;;;10.55;86.00
60642;BME280;46837;52.446;-1.930;2023-10-31T01:04:09;98354.90;;;10.55;85.91
60642;BME280;46837;52.446;-1.930;2023-10-31T01:05:10;98357.58;;;10.54;85.86
60642;BME280;46837;52.446;-1.930;2023-10-31T01:06:09;98361.14;;;10.54;85.89
60642;BME280;46837;52.446;-1.930;2023-10-31T01:07:09;98358.31;;;10.53;85.84
60642;BME280;46837;52.446;-1.930;2023-10-31T01:08:09;98355.63;;;10.54;85.91
60642;BME280;46837;52.446;-1.930;2023-10-31T01:09:09;98356.50;;;10.54;85.93
60642;BME280;46837;52.446;-1.930;2023-10-31T01:10:09;98353.52;;;10.51;85.90
60642;BME280;46837;52.446;-1.930;2023-10-31T01:11:09;98355.85;;;10.52;85.94
60642;BME280;46837;52.446;-1.930;2023-10-31T01:12:09;98351.79;;;10.55;85.91
60642;BME280;46837;52.446;-1.930;2023-10-31T01:13:09;98352.98;;;10.57;85.73
60642;BME280;46837;52.446;-1.930;2023-10-31T01:14:09;98355.38;;;10.57;85.60
60642;BME280;46837;52.446;-1.930;2023-10-31T01:15:09;98353.79;;;10.56;85.55
60642;BME280;46837;52.446;-1.930;2023-10-31T01:16:09;98355.39;;;10.55;85.46
60642;BME280;46837;52.446;-1.930;2023-10-31T01:17:09;98355.49;;;10.45;85.53
60642;BME280;46837;52.446;-1.930;2023-10-31T01:18:09;98360.98;;;10.43;85.83
60642;BME280;46837;52.446;-1.930;2023-10-31T01:19:09;98361.75;;;10.41;85.87
60642;BME280;46837;52.446;-1.930;2023-10-31T01:20:09;98362.65;;;10.44;85.89
60642;BME280;46837;52.446;-1.930;2023-10-31T01:21:09;98365.55;;;10.42;85.81
60642;BME280;46837;52.446;-1.930;2023-10-31T01:22:09;98360.76;;;10.43;85.90
60642;BME280;46837;52.446;-1.930;2023-10-31T01:23:09;98362.41;;;10.41;85.70
60642;BME280;46837;52.446;-1.930;2023-10-31T01:24:09;98356.64;;;10.45;85.92
60642;BME280;46837;52.446;-1.930;2023-10-31T01:25:09;98357.31;;;10.50;85.82
60642;BME280;46837;52.446;-1.930;2023-10-31T01:26:09;98359.52;;;10.51;85.51
60642;BME280;46837;52.446;-1.930;2023-10-31T01:27:09;98358.23;;;10.53;85.35
60642;BME280;46837;52.446;-1.930;2023-10-31T01:28:09;98355.84;;;10.54;85.27
60642;BME280;46837;52.446;-1.930;2023-10-31T01:29:09;98360.86;;;10.54;85.04
60642;BME280;46837;52.446;-1.930;2023-10-31T01:30:09;98356.20;;;10.55;84.93
60642;BME280;46837;52.446;-1.930;2023-10-31T01:31:09;98360.89;;;10.51;84.77
60642;BME280;46837;52.446;-1.930;2023-10-31T01:32:09;98356.74;;;10.46;84.73
60642;BME280;46837;52.446;-1.930;2023-10-31T01:33:09;98358.99;;;10.49;84.95
60642;BME280;46837;52.446;-1.930;2023-10-31T01:34:09;98361.52;;;10.43;84.69
60642;BME280;46837;52.446;-1.930;2023-10-31T01:35:09;98353.62;;;10.41;84.88
60642;BME280;46837;52.446;-1.930;2023-10-31T01:36:09;98358.68;;;10.44;84.98
60642;BME280;46837;52.446;-1.930;2023-10-31T01:37:09;98355.76;;;10.45;84.87
60642;BME280;46837;52.446;-1.930;2023-10-31T01:38:09;98354.40;;;10.44;84.71
60642;BME280;46837;52.446;-1.930;2023-10-31T01:39:09;98357.57;;;10.44;84.58
60642;BME280;46837;52.446;-1.930;2023-10-31T01:40:12;98356.71;;;10.44;84.49
60642;BME280;46837;52.446;-1.930;2023-10-31T01:41:09;98360.87;;;10.35;84.40
60642;BME280;46837;52.446;-1.930;2023-10-31T01:42:09;98358.13;;;10.33;84.70
60642;BME280;46837;52.446;-1.930;2023-10-31T01:43:09;98355.95;;;10.31;84.79
60642;BME280;46837;52.446;-1.930;2023-10-31T01:44:09;98353.75;;;10.33;84.78
60642;BME280;46837;52.446;-1.930;2023-10-31T01:45:09;98359.19;;;10.35;84.65
60642;BME280;46837;52.446;-1.930;2023-10-31T01:46:09;98360.02;;;10.35;84.60
60642;BME280;46837;52.446;-1.930;2023-10-31T01:47:09;98356.73;;;10.35;84.56
60642;BME280;46837;52.446;-1.930;2023-10-31T01:48:09;98360.79;;;10.36;84.59
60642;BME280;46837;52.446;-1.930;2023-10-31T01:49:09;98361.44;;;10.38;84.66
60642;BME280;46837;52.446;-1.930;2023-10-31T01:50:09;98360.23;;;10.34;84.40
60642;BME280;46837;52.446;-1.930;2023-10-31T01:51:09;98363.36;;;10.29;84.59
60642;BME280;46837;52.446;-1.930;2023-10-31T01:52:09;98359.92;;;10.19;84.74
60642;BME280;46837;52.446;-1.930;2023-10-31T01:53:09;98357.67;;;10.18;84.84
60642;BME280;46837;52.446;-1.930;2023-10-31T01:54:09;98362.80;;;10.18;85.09
60642;BME280;46837;52.446;-1.930;2023-10-31T01:55:09;98361.18;;;10.25;85.16
60642;BME280;46837;52.446;-1.930;2023-10-31T01:56:09;98360.75;;;10.21;84.83
60642;BME280;46837;52.446;-1.930;2023-10-31T01:57:09;98365.06;;;10.23;84.93
60642;BME280;46837;52.446;-1.930;2023-10-31T01:58:09;98364.23;;;10.29;84.97
60642;BME280;46837;52.446;-1.930;2023-10-31T01:59:09;98364.93;;;10.30;84.58
60642;BME280;46837;52.446;-1.930;2023-10-31T02:00:09;98367.67;;;10.32;84.60
60642;BME280;46837;52.446;-1.930;2023-10-31T02:01:09;98365.71;;;10.33;84.49
60642;BME280;46837;52.446;-1.930;2023-10-31T02:02:09;98363.65;;;10.31;84.47
60642;BME280;46837;52.446;-1.930;2023-10-31T02:03:09;98361.83;;;10.29;84.39
60642;BME280;46837;52.446;-1.930;2023-10-31T02:04:09;98360.95;;;10.29;84.60
60642;BME280;46837;52.446;-1.930;2023-10-31T02:05:09;98361.05;;;10.28;84.52
60642;BME280;46837;52.446;-1.930;2023-10-31T02:06:09;98360.24;;;10.24;84.78
60642;BME280;46837;52.446;-1.930;2023-10-31T02:07:09;98358.22;;;10.27;84.81
60642;BME280;46837;52.446;-1.930;2023-10-31T02:08:09;98359.93;;;10.31;84.82
60642;BME280;46837;52.446;-1.930;2023-10-31T02:09:09;98359.19;;;10.36;84.65
60642;BME280;46837;52.446;-1.930;2023-10-31T02:10:09;98362.83;;;10.39;84.51
60642;BME280;46837;52.446;-1.930;2023-10-31T02:11:09;98361.36;;;10.42;84.43
60642;BME280;46837;52.446;-1.930;2023-10-31T02:12:09;98361.91;;;10.43;84.21
60642;BME280;46837;52.446;-1.930;2023-10-31T02:13:17;98365.55;;;10.42;84.04
60642;BME280;46837;52.446;-1.930;2023-10-31T02:14:09;98361.34;;;10.32;84.07
60642;BME280;46837;52.446;-1.930;2023-10-31T02:15:09;98362.38;;;10.27;84.35
60642;BME280;46837;52.446;-1.930;2023-10-31T02:16:09;98365.16;;;10.29;84.50
60642;BME280;46837;52.446;-1.930;2023-10-31T02:17:09;98364.82;;;10.28;84.45
60642;BME280;46837;52.446;-1.930;2023-10-31T02:18:09;98362.14;;;10.30;84.52
60642;BME280;46837;52.446;-1.930;2023-10-31T02:19:09;98361.99;;;10.35;84.63
60642;BME280;46837;52.446;-1.930;2023-10-31T02:20:09;98359.73;;;10.37;84.38
60642;BME280;46837;52.446;-1.930;2023-10-31T02:21:09;98359.14;;;10.34;84.20
60642;BME280;46837;52.446;-1.930;2023-10-31T02:22:09;98357.43;;;10.37;84.16
60642;BME280;46837;52.446;-1.930;2023-10-31T02:23:09;98357.91;;;10.39;84.19
60642;BME280;46837;52.446;-1.930;2023-10-31T02:24:09;98356.41;;;10.36;84.00
60642;BME280;46837;52.446;-1.930;2023-10-31T02:25:16;98356.87;;;10.38;83.98
60642;BME280;46837;52.446;-1.930;2023-10-31T02:26:09;98356.87;;;10.38;83.99
60642;BME280;46837;52.446;-1.930;2023-10-31T02:27:09;98358.78;;;10.38;83.91
60642;BME280;46837;52.446;-1.930;2023-10-31T02:28:09;98353.62;;;10.41;84.09
60642;BME280;46837;52.446;-1.930;2023-10-31T02:29:09;98357.80;;;10.42;83.84
60642;BME280;46837;52.446;-1.930;2023-10-31T02:30:09;98352.97;;;10.45;83.77
60642;BME280;46837;52.446;-1.930;2023-10-31T02:31:09;98348.78;;;10.46;83.81
60642;BME280;46837;52.446;-1.930;2023-10-31T02:32:09;98353.63;;;10.46;83.37
60642;BME280;46837;52.446;-1.930;2023-10-31T02:33:09;98349.03;;;10.43;83.42
60642;BME280;46837;52.446;-1.930;2023-10-31T02:34:09;98352.09;;;10.30;83.58
60642;BME280;46837;52.446;-1.930;2023-10-31T02:35:09;98353.14;;;10.19;83.98
60642;BME280;46837;52.446;-1.930;2023-10-31T02:36:09;98351.34;;;10.15;84.44
60642;BME280;46837;52.446;-1.930;2023-10-31T02:37:09;98350.45;;;10.20;84.58
60642;BME280;46837;52.446;-1.930;2023-10-31T02:38:09;98348.75;;;10.26;84.36
60642;BME280;46837;52.446;-1.930;2023-10-31T02:39:09;98348.34;;;10.27;84.16
60642;BME280;46837;52.446;-1.930;2023-10-31T02:40:09;98350.62;;;10.30;84.01
60642;BME280;46837;52.446;-1.930;2023-10-31T02:41:09;98346.62;;;10.32;84.00
60642;BME280;46837;52.446;-1.930;2023-10-31T02:42:09;98344.88;;;10.31;83.78
60642;BME280;46837;52.446;-1.930;2023-10-31T02:43:09;98346.67;;;10.31;83.78
60642;BME280;46837;52.446;-1.930;2023-10-31T02:44:09;98343.62;;;10.22;83.82
60642;BME280;46837;52.446;-1.930;2023-10-31T02:45:09;98342.74;;;10.21;84.18
60642;BME280;46837;52.446;-1.930;2023-10-31T02:46:09;98338.66;;;10.22;84.29
60642;BME280;46837;52.446;-1.930;2023-10-31T02:47:09;98338.23;;;10.20;84.28
60642;BME280;46837;52.446;-1.930;2023-10-31T02:48:09;98337.25;;;10.24;84.39
60642;BME280;46837;52.446;-1.930;2023-10-31T02:49:09;98333.50;;;10.29;84.19
60642;BME280;46837;52.446;-1.930;2023-10-31T02:50:09;98330.32;;;10.29;83.99
60642;BME280;46837;52.446;-1.930;2023-10-31T02:51:09;98330.70;;;10.30;83.87
60642;BME280;46837;52.446;-1.930;2023-10-31T02:52:09;98330.27;;;10.20;83.87
60642;BME280;46837;52.446;-1.930;2023-10-31T02:53:09;98327.39;;;10.17;83.93
60642;BME280;46837;52.446;-1.930;2023-10-31T02:54:09;98325.34;;;10.14;83.98
60642;BME280;46837;52.446;-1.930;2023-10-31T02:55:09;98327.02;;;10.00;84.36
60642;BME280;46837;52.446;-1.930;2023-10-31T02:56:09;98328.74;;;10.00;84.83
60642;BME280;46837;52.446;-1.930;2023-10-31T02:57:09;98327.61;;;9.92;84.93
60642;BME280;46837;52.446;-1.930;2023-10-31T02:58:09;98326.44;;;9.90;85.26
60642;BME280;46837;52.446;-1.930;2023-10-31T02:59:09;98329.27;;;9.96;85.30
60642;BME280;46837;52.446;-1.930;2023-10-31T03:00:09;98326.20;;;9.97;85.11
60642;BME280;46837;52.446;-1.930;2023-10-31T03:01:09;98325.17;;;9.96;85.21
60642;BME280;46837;52.446;-1.930;2023-10-31T03:02:09;98323.53;;;9.98;85.22
60642;BME280;46837;52.446;-1.930;2023-10-31T03:03:09;98323.89;;;10.01;85.20
60642;BME280;46837;52.446;-1.930;2023-10-31T03:04:09;98323.68;;;10.07;85.25
60642;BME280;46837;52.446;-1.930;2023-10-31T03:05:09;98325.28;;;10.03;84.89
60642;BME280;46837;52.446;-1.930;2023-10-31T03:06:09;98323.95;;;10.08;85.06
60642;BME280;46837;52.446;-1.930;2023-10-31T03:07:09;98327.07;;;10.12;85.01
60642;BME280;46837;52.446;-1.930;2023-10-31T03:08:10;98329.21;;;10.15;84.91
60642;BME280;46837;52.446;-1.930;2023-10-31T03:09:09;98331.32;;;10.17;84.65
60642;BME280;46837;52.446;-1.930;2023-10-31T03:10:09;98333.27;;;10.19;84.65
60642;BME280;46837;52.446;-1.930;2023-10-31T03:11:09;98338.50;;;10.24;84.72
60642;BME280;46837;52.446;-1.930;2023-10-31T03:12:09;98337.56;;;10.26;84.46
60642;BME280;46837;52.446;-1.930;2023-10-31T03:13:09;98337.30;;;10.30;84.57
60642;BME280;46837;52.446;-1.930;2023-10-31T03:14:09;98339.32;;;10.34;84.58
60642;BME280;46837;52.446;-1.930;2023-10-31T03:15:09;98337.84;;;10.35;84.51
60642;BME280;46837;52.446;-1.930;2023-10-31T03:16:09;98336.22;;;10.29;84.35
60642;BME280;46837;52.446;-1.930;2023-10-31T03:17:09;98335.71;;;10.25;84.61
60642;BME280;46837;52.446;-1.930;2023-10-31T03:18:09;98339.06;;;10.27;84.69
60642;BME280;46837;52.446;-1.930;2023-10-31T03:19:09;98344.32;;;10.26;84.71
60642;BME280;46837;52.446;-1.930;2023-10-31T03:20:09;98347.14;;;10.29;84.95
60642;BME280;46837;52.446;-1.930;2023-10-31T03:21:09;98350.20;;;10.32;84.79
60642;BME280;46837;52.446;-1.930;2023-10-31T03:22:09;98349.81;;;10.36;84.74
60642;BME280;46837;52.446;-1.930;2023-10-31T03:23:09;98341.25;;;10.38;84.72
60642;BME280;46837;52.446;-1.930;2023-10-31T03:24:09;98339.34;;;10.39;84.37
60642;BME280;46837;52.446;-1.930;2023-10-31T03:25:09;98339.73;;;10.37;84.19
60642;BME280;46837;52.446;-1.930;2023-10-31T03:26:09;98340.13;;;10.36;84.31
60642;BME280;46837;52.446;-1.930;2023-10-31T03:27:09;98346.43;;;10.34;84.32
60642;BME280;46837;52.446;-1.930;2023-10-31T03:28:17;98349.51;;;10.33;84.34
60642;BME280;46837;52.446;-1.930;2023-10-31T03:29:09;98352.54;;;10.29;84.39
60642;BME280;46837;52.446;-1.930;2023-10-31T03:30:09;98356.95;;;10.25;84.42
60642;BME280;46837;52.446;-1.930;2023-10-31T03:31:09;98364.69;;;10.22;84.52
60642;BME280;46837;52.446;-1.930;2023-10-31T03:32:09;98375.59;;;10.17;84.75
60642;BME280;46837;52.446;-1.930;2023-10-31T03:33:09;98389.40;;;10.11;85.02
60642;BME280;46837;52.446;-1.930;2023-10-31T03:34:09;98397.02;;;10.06;85.39
60642;BME280;46837;52.446;-1.930;2023-10-31T03:35:09;98399.61;;;10.04;85.62
60642;BME280;46837;52.446;-1.930;2023-10-31T03:36:09;98397.50;;;9.92;86.08
60642;BME280;46837;52.446;-1.930;2023-10-31T03:37:09;98388.99;;;9.92;86.57
60642;BME280;46837;52.446;-1.930;2023-10-31T03:38:09;98381.90;;;9.92;86.20
60642;BME280;46837;52.446;-1.930;2023-10-31T03:39:09;98382.75;;;9.96;86.10
60642;BME280;46837;52.446;-1.930;2023-10-31T03:40:10;98376.78;;;10.00;86.01
60642;BME280;46837;52.446;-1.930;2023-10-31T03:41:09;98371.32;;;10.03;85.70
60642;BME280;46837;52.446;-1.930;2023-10-31T03:42:09;98364.00;;;10.06;85.69
60642;BME280;46837;52.446;-1.930;2023-10-31T03:43:09;98362.75;;;10.04;85.80
60642;BME280;46837;52.446;-1.930;2023-10-31T03:44:09;98355.52;;;9.97;86.43
60642;BME280;46837;52.446;-1.930;2023-10-31T03:45:09;98351.85;;;9.89;86.96
60642;BME280;46837;52.446;-1.930;2023-10-31T03:46:09;98348.64;;;9.89;87.13
60642;BME280;46837;52.446;-1.930;2023-10-31T03:47:09;98343.50;;;9.78;87.61
60642;BME280;46837;52.446;-1.930;2023-10-31T03:48:09;98344.43;;;9.71;88.29
60642;BME280;46837;52.446;-1.930;2023-10-31T03:49:10;98336.22;;;9.72;88.45
60642;BME280;46837;52.446;-1.930;2023-10-31T03:50:09;98338.07;;;9.69;88.36
60642;BME280;46837;52.446;-1.930;2023-10-31T03:51:09;98336.91;;;9.62;88.42
60642;BME280;46837;52.446;-1.930;2023-10-31T03:52:09;98332.50;;;9.58;88.82
60642;BME280;46837;52.446;-1.930;2023-10-31T03:53:09;98335.47;;;9.59;88.82
60642;BME280;46837;52.446;-1.930;2023-10-31T03:54:09;98339.57;;;9.61;88.75
60642;BME280;46837;52.446;-1.930;2023-10-31T03:55:09;98340.11;;;9.66;88.79
60642;BME280;46837;52.446;-1.930;2023-10-31T03:56:09;98340.78;;;9.63;88.58
60642;BME280;46837;52.446;-1.930;2023-10-31T03:57:09;98341.64;;;9.62;88.86
60642;BME280;46837;52.446;-1.930;2023-10-31T03:58:09;98347.51;;;9.65;88.71
60642;BME280;46837;52.446;-1.930;2023-10-31T03:59:09;98348.85;;;9.68;88.51
60642;BME280;46837;52.446;-1.930;2023-10-31T04:00:10;98350.29;;;9.62;88.39
60642;BME280;46837;52.446;-1.930;2023-10-31T04:01:09;98350.00;;;9.61;88.88
60642;BME280;46837;52.446;-1.930;2023-10-31T04:02:09;98349.52;;;9.67;88.91
60642;BME280;46837;52.446;-1.930;2023-10-31T04:03:09;98353.36;;;9.71;88.62
60642;BME280;46837;52.446;-1.930;2023-10-31T04:04:09;98358.00;;;9.73;88.55
60642;BME280;46837;52.446;-1.930;2023-10-31T04:05:09;98355.21;;;9.74;88.43
60642;BME280;46837;52.446;-1.930;2023-10-31T04:06:09;98364.50;;;9.77;88.50
60642;BME280;46837;52.446;-1.930;2023-10-31T04:07:09;98363.70;;;9.82;88.26
60642;BME280;46837;52.446;-1.930;2023-10-31T04:08:09;98363.51;;;9.87;88.16
60642;BME280;46837;52.446;-1.930;2023-10-31T04:09:09;98355.04;;;9.90;87.86
60642;BME280;46837;52.446;-1.930;2023-10-31T04:10:09;98356.56;;;9.90;87.70
60642;BME280;46837;52.446;-1.930;2023-10-31T04:11:09;98358.73;;;9.93;87.69
60642;BME280;46837;52.446;-1.930;2023-10-31T04:12:09;98361.93;;;9.94;87.44
60642;BME280;46837;52.446;-1.930;2023-10-31T04:13:09;98366.86;;;9.96;87.44
60642;BME280;46837;52.446;-1.930;2023-10-31T04:14:09;98371.95;;;9.97;87.28
60642;BME280;46837;52.446;-1.930;2023-10-31T04:15:09;98369.22;;;9.95;87.13
60642;BME280;46837;52.446;-1.930;2023-10-31T04:16:09;98368.49;;;9.94;87.35
60642;BME280;46837;52.446;-1.930;2023-10-31T04:17:09;98372.81;;;9.96;87.42
60642;BME280;46837;52.446;-1.930;2023-10-31T04:18:09;98373.83;;;9.99;87.46
60642;BME280;46837;52.446;-1.930;2023-10-31T04:19:09;98378.13;;;9.99;87.39
60642;BME280;46837;52.446;-1.930;2023-10-31T04:20:09;98378.84;;;10.01;87.48
60642;BME280;46837;52.446;-1.930;2023-10-31T04:21:09;98380.04;;;10.01;87.39
60642;BME280;46837;52.446;-1.930;2023-10-31T04:22:09;98377.90;;;10.07;87.61
60642;BME280;46837;52.446;-1.930;2023-10-31T04:23:09;98373.57;;;10.12;87.43
60642;BME280;46837;52.446;-1.930;2023-10-31T04:24:09;98379.04;;;10.16;87.20
60642;BME280;46837;52.446;-1.930;2023-10-31T04:25:09;98377.85;;;10.15;86.99
60642;BME280;46837;52.446;-1.930;2023-10-31T04:26:09;98381.54;;;10.16;87.10
60642;BME280;46837;52.446;-1.930;2023-10-31T04:27:09;98384.03;;;10.15;87.12
60642;BME280;46837;52.446;-1.930;2023-10-31T04:28:09;98382.94;;;10.18;87.24
60642;BME280;46837;52.446;-1.930;2023-10-31T04:29:09;98388.78;;;10.18;87.12
60642;BME280;46837;52.446;-1.930;2023-10-31T04:30:09;98386.67;;;10.24;87.35
60642;BME280;46837;52.446;-1.930;2023-10-31T04:31:09;98384.82;;;10.27;86.94
60642;BME280;46837;52.446;-1.930;2023-10-31T04:32:09;98388.46;;;10.27;86.71
60642;BME280;46837;52.446;-1.930;2023-10-31T04:33:09;98386.60;;;10.28;86.68
60642;BME280;46837;52.446;-1.930;2023-10-31T04:34:09;98382.91;;;10.27;86.62
60642;BME280;46837;52.446;-1.930;2023-10-31T04:35:09;98381.16;;;10.32;86.96
60642;BME280;46837;52.446;-1.930;2023-10-31T04:36:09;98389.49;;;10.35;86.75
60642;BME280;46837;52.446;-1.930;2023-10-31T04:37:09;98385.07;;;10.36;86.63
60642;BME280;46837;52.446;-1.930;2023-10-31T04:38:09;98387.34;;;10.38;86.41
60642;BME280;46837;52.446;-1.930;2023-10-31T04:39:09;98384.66;;;10.39;86.32
60642;BME280;46837;52.446;-1.930;2023-10-31T04:40:09;98386.16;;;10.36;86.23
60642;BME280;46837;52.446;-1.930;2023-10-31T04:41:09;98391.92;;;10.31;86.48
60642;BME280;46837;52.446;-1.930;2023-10-31T04:42:09;98390.82;;;10.34;86.79
60642;BME280;46837;52.446;-1.930;2023-10-31T04:43:09;98392.04;;;10.37;86.72
60642;BME280;46837;52.446;-1.930;2023-10-31T04:44:09;98393.33;;;10.40;86.63
60642;BME280;46837;52.446;-1.930;2023-10-31T04:45:09;98396.67;;;10.44;86.59
60642;BME280;46837;52.446;-1.930;2023-10-31T04:46:09;98392.93;;;10.47;86.45
60642;BME280;46837;52.446;-1.930;2023-10-31T04:47:09;98397.89;;;10.48;86.18
60642;BME280;46837;52.446;-1.930;2023-10-31T04:48:09;98395.61;;;10.52;86.30
60642;BME280;46837;52.446;-1.930;2023-10-31T04:49:09;98396.86;;;10.54;86.18
60642;BME280;46837;52.446;-1.930;2023-10-31T04:50:09;98391.63;;;10.56;86.07
60642;BME280;46837;52.446;-1.930;2023-10-31T04:51:09;98389.64;;;10.55;85.84
60642;BME280;46837;52.446;-1.930;2023-10-31T04:52:09;98395.60;;;10.54;85.83
60642;BME280;46837;52.446;-1.930;2023-10-31T04:53:09;98395.27;;;10.53;85.74
60642;BME280;46837;52.446;-1.930;2023-10-31T04:54:09;98393.79;;;10.48;85.83
60642;BME280;46837;52.446;-1.930;2023-10-31T04:55:09;98392.96;;;10.44;86.09
60642;BME280;46837;52.446;-1.930;2023-10-31T04:56:12;98391.11;;;10.44;86.19
60642;BME280;46837;52.446;-1.930;2023-10-31T04:57:09;98392.13;;;10.45;86.35
60642;BME280;46837;52.446;-1.930;2023-10-31T04:58:09;98393.36;;;10.43;86.29
60642;BME280;46837;52.446;-1.930;2023-10-31T04:59:09;98391.87;;;10.39;86.35
60642;BME280;46837;52.446;-1.930;2023-10-31T05:00:11;98391.22;;;10.37;86.71
60642;BME280;46837;52.446;-1.930;2023-10-31T05:01:09;98390.85;;;10.37;86.76
60642;BME280;46837;52.446;-1.930;2023-10-31T05:02:09;98390.96;;;10.35;86.73
60642;BME280;46837;52.446;-1.930;2023-10-31T05:03:09;98391.13;;;10.36;86.87
60642;BME280;46837;52.446;-1.930;2023-10-31T05:04:09;98395.93;;;10.37;86.74
60642;BME280;46837;52.446;-1.930;2023-10-31T05:05:09;98390.25;;;10.36;86.81
60642;BME280;46837;52.446;-1.930;2023-10-31T05:06:09;98394.73;;;10.36;86.89
60642;BME280;46837;52.446;-1.930;2023-10-31T05:07:09;98392.41;;;10.33;86.84
60642;BME280;46837;52.446;-1.930;2023-10-31T05:08:09;98394.90;;;10.36;87.01
60642;BME280;46837;52.446;-1.930;2023-10-31T05:09:09;98390.81;;;10.41;86.99
60642;BME280;46837;52.446;-1.930;2023-10-31T05:10:09;98391.10;;;10.44;86.96
60642;BME280;46837;52.446;-1.930;2023-10-31T05:11:09;98386.77;;;10.47;86.84
60642;BME280;46837;52.446;-1.930;2023-10-31T05:12:09;98389.74;;;10.50;86.79
60642;BME280;46837;52.446;-1.930;2023-10-31T05:13:09;98387.36;;;10.52;86.48
60642;BME280;46837;52.446;-1.930;2023-10-31T05:14:09;98392.01;;;10.56;86.50